Strona główna
METAR-TAF:

METAR-TAF

Lotnisko :

Port lotniczy Natal-Augusto Severo

Natal, Rio Grande do Norte, Brazylia

Szerokość geograficzna: 05-55S, Długość geograficzna: 035-15W, wysokość: 52 m

Aktualna obserwacja pogody

Raport powstał 36 minut temu, godzina 19:00 UTC
Wiatr 10 kt od wschód
Temperatura 26°C
Wilgotność 89%
Ciśnienie 1012 hPa
Widzialność 10 km lub więcej
Rozproszone chmury na wysokości 3000 ft
Przerywane chmury na wysokości 7000 ft

METAR: SBNT 301900Z 10010KT 9999 SCT030 BKN070 26/24 Q1012

czas: 16:36 (19:36 UTC)

Prognoza

Raport powstał 10 godziny i 36 minut temu, godzina 09:00 UTC
Prognoza ważna od 30 godzina 12 UTC do 30 godzina 24 UTC
Wiatr 10 kt od wschodnio-południowy wschód
Widzialność: 8000 m
Rozproszone chmury na wysokości 2000 ft

TAF: SBNT 300900Z 3012/3024 11010KT 8000 SCT020 TX30/3015Z TN27/3023Z RMK PEA

Obserwacja i prognoza pogody dla ponad 4000 lotnisk (raport METAR i TAF).

Dostępne stacje oznaczono żółtymi i czerwonymi punktami na mapie.

Najedź kursorem aby zobaczyć nazwę stacji.

Kliknij aby zobaczyć obserwacje i prognozy pogody.

Aby zmienić mapę: kliknij na zielony przycisk z czarnym krzyżykiem, aby powiększyć; na zielony przycisk z myślnikiem, aby pomniejszyć; na zielone strzałki, aby przejść do map sąsiednich.


METAR-TAF: